sensor_id;sensor_type;location;lat;lon;timestamp;P1;durP1;ratioP1;P2;durP2;ratioP2
19800;SDS011;10060;48.274;12.214;2022-10-16T00:02:23;2.38;;;1.80;;
19800;SDS011;10060;48.274;12.214;2022-10-16T00:05:26;5.78;;;1.60;;
19800;SDS011;10060;48.274;12.214;2022-10-16T00:08:29;6.97;;;2.17;;
19800;SDS011;10060;48.274;12.214;2022-10-16T00:11:32;2.05;;;1.83;;
19800;SDS011;10060;48.274;12.214;2022-10-16T00:14:36;3.00;;;1.90;;
19800;SDS011;10060;48.274;12.214;2022-10-16T00:17:40;6.28;;;1.90;;
19800;SDS011;10060;48.274;12.214;2022-10-16T00:20:44;3.25;;;2.00;;
19800;SDS011;10060;48.274;12.214;2022-10-16T00:23:46;3.45;;;1.92;;
19800;SDS011;10060;48.274;12.214;2022-10-16T00:26:51;2.63;;;1.80;;
19800;SDS011;10060;48.274;12.214;2022-10-16T00:29:53;4.38;;;2.20;;
19800;SDS011;10060;48.274;12.214;2022-10-16T00:32:56;3.67;;;1.77;;
19800;SDS011;10060;48.274;12.214;2022-10-16T00:35:59;7.97;;;2.60;;
19800;SDS011;10060;48.274;12.214;2022-10-16T00:39:01;3.08;;;2.55;;
19800;SDS011;10060;48.274;12.214;2022-10-16T00:42:04;2.83;;;2.20;;
19800;SDS011;10060;48.274;12.214;2022-10-16T00:45:08;5.78;;;2.10;;
19800;SDS011;10060;48.274;12.214;2022-10-16T00:48:10;4.37;;;2.67;;
19800;SDS011;10060;48.274;12.214;2022-10-16T00:51:17;7.57;;;2.17;;
19800;SDS011;10060;48.274;12.214;2022-10-16T00:54:22;5.67;;;2.60;;
19800;SDS011;10060;48.274;12.214;2022-10-16T00:57:25;3.47;;;2.38;;
19800;SDS011;10060;48.274;12.214;2022-10-16T01:00:27;2.13;;;1.70;;
19800;SDS011;10060;48.274;12.214;2022-10-16T01:03:30;3.27;;;2.17;;
19800;SDS011;10060;48.274;12.214;2022-10-16T01:06:36;5.70;;;2.50;;
19800;SDS011;10060;48.274;12.214;2022-10-16T01:09:42;6.20;;;2.63;;
19800;SDS011;10060;48.274;12.214;2022-10-16T01:12:47;4.30;;;2.67;;
19800;SDS011;10060;48.274;12.214;2022-10-16T01:15:53;4.73;;;2.83;;
19800;SDS011;10060;48.274;12.214;2022-10-16T01:18:59;3.00;;;2.70;;
19800;SDS011;10060;48.274;12.214;2022-10-16T01:22:04;4.47;;;2.43;;
19800;SDS011;10060;48.274;12.214;2022-10-16T01:25:09;6.03;;;2.40;;
19800;SDS011;10060;48.274;12.214;2022-10-16T01:28:15;3.43;;;2.60;;
19800;SDS011;10060;48.274;12.214;2022-10-16T01:31:19;3.87;;;2.70;;
19800;SDS011;10060;48.274;12.214;2022-10-16T01:34:23;2.63;;;2.27;;
19800;SDS011;10060;48.274;12.214;2022-10-16T01:37:29;4.37;;;2.63;;
19800;SDS011;10060;48.274;12.214;2022-10-16T01:40:34;3.30;;;2.70;;
19800;SDS011;10060;48.274;12.214;2022-10-16T01:43:40;3.25;;;2.30;;
19800;SDS011;10060;48.274;12.214;2022-10-16T01:46:43;2.47;;;2.27;;
19800;SDS011;10060;48.274;12.214;2022-10-16T01:49:46;5.17;;;2.43;;
19800;SDS011;10060;48.274;12.214;2022-10-16T01:52:49;6.00;;;2.60;;
19800;SDS011;10060;48.274;12.214;2022-10-16T01:55:52;3.83;;;2.30;;
19800;SDS011;10060;48.274;12.214;2022-10-16T01:58:57;4.63;;;2.30;;
19800;SDS011;10060;48.274;12.214;2022-10-16T02:02:03;3.00;;;2.23;;
19800;SDS011;10060;48.274;12.214;2022-10-16T02:05:09;7.53;;;3.50;;
19800;SDS011;10060;48.274;12.214;2022-10-16T02:08:12;3.77;;;2.50;;
19800;SDS011;10060;48.274;12.214;2022-10-16T02:11:15;6.17;;;2.70;;
19800;SDS011;10060;48.274;12.214;2022-10-16T02:14:18;3.33;;;3.03;;
19800;SDS011;10060;48.274;12.214;2022-10-16T02:17:20;7.63;;;3.70;;
19800;SDS011;10060;48.274;12.214;2022-10-16T02:20:25;7.07;;;3.20;;
19800;SDS011;10060;48.274;12.214;2022-10-16T02:23:29;3.57;;;3.20;;
19800;SDS011;10060;48.274;12.214;2022-10-16T02:26:37;7.70;;;3.53;;
19800;SDS011;10060;48.274;12.214;2022-10-16T02:29:42;6.60;;;3.20;;
19800;SDS011;10060;48.274;12.214;2022-10-16T02:32:48;4.47;;;2.90;;
19800;SDS011;10060;48.274;12.214;2022-10-16T02:35:51;3.80;;;2.90;;
19800;SDS011;10060;48.274;12.214;2022-10-16T02:38:53;3.20;;;2.90;;
19800;SDS011;10060;48.274;12.214;2022-10-16T02:41:55;6.80;;;3.10;;
19800;SDS011;10060;48.274;12.214;2022-10-16T02:44:58;5.07;;;3.03;;
19800;SDS011;10060;48.274;12.214;2022-10-16T02:48:01;8.23;;;3.23;;
19800;SDS011;10060;48.274;12.214;2022-10-16T02:51:03;5.33;;;3.33;;
19800;SDS011;10060;48.274;12.214;2022-10-16T02:54:05;4.60;;;3.20;;
19800;SDS011;10060;48.274;12.214;2022-10-16T02:57:07;6.13;;;3.20;;
19800;SDS011;10060;48.274;12.214;2022-10-16T03:00:12;4.63;;;2.70;;
19800;SDS011;10060;48.274;12.214;2022-10-16T03:03:14;2.90;;;2.60;;
19800;SDS011;10060;48.274;12.214;2022-10-16T03:06:16;3.13;;;2.77;;
19800;SDS011;10060;48.274;12.214;2022-10-16T03:09:18;5.67;;;3.50;;
19800;SDS011;10060;48.274;12.214;2022-10-16T03:12:20;5.67;;;3.37;;
19800;SDS011;10060;48.274;12.214;2022-10-16T03:15:24;4.60;;;3.00;;
19800;SDS011;10060;48.274;12.214;2022-10-16T03:18:28;4.83;;;3.10;;
19800;SDS011;10060;48.274;12.214;2022-10-16T03:21:30;4.00;;;3.60;;
19800;SDS011;10060;48.274;12.214;2022-10-16T03:24:32;7.43;;;3.40;;
19800;SDS011;10060;48.274;12.214;2022-10-16T03:27:34;4.53;;;3.27;;
19800;SDS011;10060;48.274;12.214;2022-10-16T03:30:37;4.80;;;3.63;;
19800;SDS011;10060;48.274;12.214;2022-10-16T03:33:40;4.50;;;3.47;;
19800;SDS011;10060;48.274;12.214;2022-10-16T03:36:42;5.67;;;3.17;;
19800;SDS011;10060;48.274;12.214;2022-10-16T03:39:44;6.73;;;3.60;;
19800;SDS011;10060;48.274;12.214;2022-10-16T03:42:47;6.60;;;3.53;;
19800;SDS011;10060;48.274;12.214;2022-10-16T03:45:51;4.93;;;3.43;;
19800;SDS011;10060;48.274;12.214;2022-10-16T03:48:53;6.67;;;3.40;;
19800;SDS011;10060;48.274;12.214;2022-10-16T03:51:55;3.83;;;3.40;;
19800;SDS011;10060;48.274;12.214;2022-10-16T03:54:57;7.07;;;3.67;;
19800;SDS011;10060;48.274;12.214;2022-10-16T03:57:59;3.90;;;3.33;;
19800;SDS011;10060;48.274;12.214;2022-10-16T04:01:03;4.90;;;4.00;;
19800;SDS011;10060;48.274;12.214;2022-10-16T04:04:05;8.10;;;3.53;;
19800;SDS011;10060;48.274;12.214;2022-10-16T04:07:07;5.97;;;3.80;;
19800;SDS011;10060;48.274;12.214;2022-10-16T04:10:09;4.50;;;3.20;;
19800;SDS011;10060;48.274;12.214;2022-10-16T04:13:11;6.57;;;3.70;;
19800;SDS011;10060;48.274;12.214;2022-10-16T04:16:15;5.63;;;3.93;;
19800;SDS011;10060;48.274;12.214;2022-10-16T04:19:17;5.80;;;3.60;;
19800;SDS011;10060;48.274;12.214;2022-10-16T04:22:19;4.40;;;3.63;;
19800;SDS011;10060;48.274;12.214;2022-10-16T04:25:21;4.77;;;3.53;;
19800;SDS011;10060;48.274;12.214;2022-10-16T04:28:23;3.83;;;3.00;;
19800;SDS011;10060;48.274;12.214;2022-10-16T04:31:27;4.53;;;3.83;;
19800;SDS011;10060;48.274;12.214;2022-10-16T04:34:29;5.80;;;3.50;;
19800;SDS011;10060;48.274;12.214;2022-10-16T04:37:31;3.90;;;3.50;;
19800;SDS011;10060;48.274;12.214;2022-10-16T04:40:33;6.13;;;3.80;;
19800;SDS011;10060;48.274;12.214;2022-10-16T04:43:36;3.97;;;3.47;;
19800;SDS011;10060;48.274;12.214;2022-10-16T04:46:39;6.37;;;3.80;;
19800;SDS011;10060;48.274;12.214;2022-10-16T04:49:41;6.00;;;3.80;;
19800;SDS011;10060;48.274;12.214;2022-10-16T04:52:43;6.97;;;3.73;;
19800;SDS011;10060;48.274;12.214;2022-10-16T04:55:45;4.77;;;2.97;;
19800;SDS011;10060;48.274;12.214;2022-10-16T04:58:48;3.77;;;3.47;;
19800;SDS011;10060;48.274;12.214;2022-10-16T05:01:51;3.53;;;3.23;;
19800;SDS011;10060;48.274;12.214;2022-10-16T05:04:53;3.83;;;3.23;;
19800;SDS011;10060;48.274;12.214;2022-10-16T05:07:55;7.33;;;4.00;;
19800;SDS011;10060;48.274;12.214;2022-10-16T05:10:57;5.73;;;3.90;;
19800;SDS011;10060;48.274;12.214;2022-10-16T05:14:00;4.17;;;3.77;;
19800;SDS011;10060;48.274;12.214;2022-10-16T05:17:03;4.40;;;4.00;;
19800;SDS011;10060;48.274;12.214;2022-10-16T05:20:06;5.30;;;4.33;;
19800;SDS011;10060;48.274;12.214;2022-10-16T05:23:08;4.93;;;4.17;;
19800;SDS011;10060;48.274;12.214;2022-10-16T05:26:11;5.03;;;3.90;;
19800;SDS011;10060;48.274;12.214;2022-10-16T05:29:13;5.97;;;3.80;;
19800;SDS011;10060;48.274;12.214;2022-10-16T05:32:17;4.10;;;3.53;;
19800;SDS011;10060;48.274;12.214;2022-10-16T05:35:20;5.67;;;3.90;;
19800;SDS011;10060;48.274;12.214;2022-10-16T05:38:22;4.03;;;3.60;;
19800;SDS011;10060;48.274;12.214;2022-10-16T05:41:24;4.10;;;3.70;;
19800;SDS011;10060;48.274;12.214;2022-10-16T05:44:26;4.20;;;3.80;;
19800;SDS011;10060;48.274;12.214;2022-10-16T05:47:30;5.37;;;3.77;;
19800;SDS011;10060;48.274;12.214;2022-10-16T05:50:32;4.60;;;4.00;;
19800;SDS011;10060;48.274;12.214;2022-10-16T05:53:35;4.50;;;4.00;;
19800;SDS011;10060;48.274;12.214;2022-10-16T05:56:37;4.30;;;3.90;;
19800;SDS011;10060;48.274;12.214;2022-10-16T05:59:39;4.80;;;4.23;;
19800;SDS011;10060;48.274;12.214;2022-10-16T06:02:42;8.37;;;4.63;;
19800;SDS011;10060;48.274;12.214;2022-10-16T06:05:44;4.10;;;3.63;;
19800;SDS011;10060;48.274;12.214;2022-10-16T06:08:47;6.43;;;4.17;;
19800;SDS011;10060;48.274;12.214;2022-10-16T06:11:49;5.67;;;4.23;;
19800;SDS011;10060;48.274;12.214;2022-10-16T06:14:51;4.93;;;3.93;;
19800;SDS011;10060;48.274;12.214;2022-10-16T06:17:55;5.40;;;4.63;;
19800;SDS011;10060;48.274;12.214;2022-10-16T06:20:57;7.50;;;3.90;;
19800;SDS011;10060;48.274;12.214;2022-10-16T06:23:59;5.40;;;4.27;;
19800;SDS011;10060;48.274;12.214;2022-10-16T06:27:02;5.80;;;4.40;;
19800;SDS011;10060;48.274;12.214;2022-10-16T06:30:05;4.93;;;3.93;;
19800;SDS011;10060;48.274;12.214;2022-10-16T06:33:09;6.17;;;4.27;;
19800;SDS011;10060;48.274;12.214;2022-10-16T06:36:11;6.43;;;4.37;;
19800;SDS011;10060;48.274;12.214;2022-10-16T06:39:14;5.60;;;4.77;;
19800;SDS011;10060;48.274;12.214;2022-10-16T06:42:16;7.23;;;4.47;;
19800;SDS011;10060;48.274;12.214;2022-10-16T06:45:18;7.03;;;5.00;;
19800;SDS011;10060;48.274;12.214;2022-10-16T06:48:23;6.83;;;4.90;;
19800;SDS011;10060;48.274;12.214;2022-10-16T06:51:25;8.03;;;5.07;;
19800;SDS011;10060;48.274;12.214;2022-10-16T06:54:27;5.43;;;4.83;;
19800;SDS011;10060;48.274;12.214;2022-10-16T06:57:30;6.67;;;4.40;;
19800;SDS011;10060;48.274;12.214;2022-10-16T07:00:32;6.43;;;4.93;;
19800;SDS011;10060;48.274;12.214;2022-10-16T07:03:37;5.73;;;4.93;;
19800;SDS011;10060;48.274;12.214;2022-10-16T07:06:39;5.53;;;4.47;;
19800;SDS011;10060;48.274;12.214;2022-10-16T07:09:41;6.27;;;5.17;;
19800;SDS011;10060;48.274;12.214;2022-10-16T07:12:43;10.83;;;5.53;;
19800;SDS011;10060;48.274;12.214;2022-10-16T07:15:45;7.77;;;6.30;;
19800;SDS011;10060;48.274;12.214;2022-10-16T07:18:49;9.23;;;5.67;;
19800;SDS011;10060;48.274;12.214;2022-10-16T07:21:52;7.53;;;5.60;;
19800;SDS011;10060;48.274;12.214;2022-10-16T07:24:54;8.27;;;5.80;;
19800;SDS011;10060;48.274;12.214;2022-10-16T07:27:56;9.77;;;5.87;;
19800;SDS011;10060;48.274;12.214;2022-10-16T07:31:01;7.57;;;6.13;;
19800;SDS011;10060;48.274;12.214;2022-10-16T07:34:05;9.00;;;6.10;;
19800;SDS011;10060;48.274;12.214;2022-10-16T07:37:08;7.70;;;5.87;;
19800;SDS011;10060;48.274;12.214;2022-10-16T07:40:10;11.50;;;6.30;;
19800;SDS011;10060;48.274;12.214;2022-10-16T07:43:12;7.03;;;5.30;;
19800;SDS011;10060;48.274;12.214;2022-10-16T07:46:14;6.60;;;5.80;;
19800;SDS011;10060;48.274;12.214;2022-10-16T07:49:18;8.43;;;6.37;;
19800;SDS011;10060;48.274;12.214;2022-10-16T07:52:20;7.97;;;6.23;;
19800;SDS011;10060;48.274;12.214;2022-10-16T07:55:22;10.43;;;6.30;;
19800;SDS011;10060;48.274;12.214;2022-10-16T07:58:25;7.90;;;6.03;;
19800;SDS011;10060;48.274;12.214;2022-10-16T08:01:27;7.30;;;5.87;;
19800;SDS011;10060;48.274;12.214;2022-10-16T08:04:31;9.47;;;6.90;;
19800;SDS011;10060;48.274;12.214;2022-10-16T08:07:33;10.20;;;6.43;;
19800;SDS011;10060;48.274;12.214;2022-10-16T08:10:35;6.40;;;5.77;;
19800;SDS011;10060;48.274;12.214;2022-10-16T08:13:37;7.77;;;6.10;;
19800;SDS011;10060;48.274;12.214;2022-10-16T08:16:39;7.67;;;5.80;;
19800;SDS011;10060;48.274;12.214;2022-10-16T08:19:45;6.63;;;5.93;;
19800;SDS011;10060;48.274;12.214;2022-10-16T08:22:47;6.40;;;5.53;;
19800;SDS011;10060;48.274;12.214;2022-10-16T08:25:49;9.30;;;5.40;;
19800;SDS011;10060;48.274;12.214;2022-10-16T08:28:51;6.70;;;5.87;;
19800;SDS011;10060;48.274;12.214;2022-10-16T08:31:53;11.37;;;5.67;;
19800;SDS011;10060;48.274;12.214;2022-10-16T08:34:56;6.93;;;4.47;;
19800;SDS011;10060;48.274;12.214;2022-10-16T08:37:59;4.77;;;4.27;;
19800;SDS011;10060;48.274;12.214;2022-10-16T08:41:16;6.43;;;4.13;;
19800;SDS011;10060;48.274;12.214;2022-10-16T08:47:41;5.07;;;3.57;;
19800;SDS011;10060;48.274;12.214;2022-10-16T08:50:47;6.80;;;3.75;;
19800;SDS011;10060;48.274;12.214;2022-10-16T08:53:51;4.95;;;3.45;;
19800;SDS011;10060;48.274;12.214;2022-10-16T08:56:54;3.35;;;3.03;;
19800;SDS011;10060;48.274;12.214;2022-10-16T08:59:57;5.55;;;4.10;;
19800;SDS011;10060;48.274;12.214;2022-10-16T09:03:04;7.05;;;3.75;;
19800;SDS011;10060;48.274;12.214;2022-10-16T09:09:31;5.07;;;3.72;;
19800;SDS011;10060;48.274;12.214;2022-10-16T09:12:37;5.55;;;3.05;;
19800;SDS011;10060;48.274;12.214;2022-10-16T09:15:41;7.22;;;3.60;;
19800;SDS011;10060;48.274;12.214;2022-10-16T09:18:45;4.00;;;3.08;;
19800;SDS011;10060;48.274;12.214;2022-10-16T09:21:50;6.55;;;3.30;;
19800;SDS011;10060;48.274;12.214;2022-10-16T09:24:55;5.10;;;2.88;;
19800;SDS011;10060;48.274;12.214;2022-10-16T09:28:01;4.90;;;2.60;;
19800;SDS011;10060;48.274;12.214;2022-10-16T09:31:03;4.00;;;3.03;;
19800;SDS011;10060;48.274;12.214;2022-10-16T09:34:05;8.18;;;2.70;;
19800;SDS011;10060;48.274;12.214;2022-10-16T09:37:09;3.58;;;3.17;;
19800;SDS011;10060;48.274;12.214;2022-10-16T09:40:23;5.93;;;2.90;;
19800;SDS011;10060;48.274;12.214;2022-10-16T09:43:26;6.90;;;3.05;;
19800;SDS011;10060;48.274;12.214;2022-10-16T09:46:31;4.88;;;2.95;;
19800;SDS011;10060;48.274;12.214;2022-10-16T09:49:33;7.40;;;3.03;;
19800;SDS011;10060;48.274;12.214;2022-10-16T09:52:35;4.78;;;3.38;;
19800;SDS011;10060;48.274;12.214;2022-10-16T09:55:48;10.60;;;3.85;;
19800;SDS011;10060;48.274;12.214;2022-10-16T09:58:51;8.48;;;4.28;;
19800;SDS011;10060;48.274;12.214;2022-10-16T10:01:53;8.43;;;3.60;;
19800;SDS011;10060;48.274;12.214;2022-10-16T10:04:56;8.27;;;3.60;;
19800;SDS011;10060;48.274;12.214;2022-10-16T10:07:59;6.40;;;3.63;;
19800;SDS011;10060;48.274;12.214;2022-10-16T10:11:04;4.50;;;2.80;;
19800;SDS011;10060;48.274;12.214;2022-10-16T10:14:06;4.85;;;3.10;;
19800;SDS011;10060;48.274;12.214;2022-10-16T10:17:16;4.30;;;2.83;;
19800;SDS011;10060;48.274;12.214;2022-10-16T10:20:23;6.05;;;3.08;;
19800;SDS011;10060;48.274;12.214;2022-10-16T10:23:26;3.63;;;2.63;;
19800;SDS011;10060;48.274;12.214;2022-10-16T10:26:31;5.15;;;3.47;;
19800;SDS011;10060;48.274;12.214;2022-10-16T10:29:37;2.90;;;2.38;;
19800;SDS011;10060;48.274;12.214;2022-10-16T10:32:44;3.30;;;2.63;;
19800;SDS011;10060;48.274;12.214;2022-10-16T10:35:50;3.78;;;2.60;;
19800;SDS011;10060;48.274;12.214;2022-10-16T10:38:57;3.85;;;2.90;;
19800;SDS011;10060;48.274;12.214;2022-10-16T10:42:04;3.03;;;2.30;;
19800;SDS011;10060;48.274;12.214;2022-10-16T10:45:12;4.05;;;2.38;;
19800;SDS011;10060;48.274;12.214;2022-10-16T10:48:18;5.32;;;2.40;;
19800;SDS011;10060;48.274;12.214;2022-10-16T10:51:24;3.25;;;2.35;;
19800;SDS011;10060;48.274;12.214;2022-10-16T10:54:32;3.00;;;2.05;;
19800;SDS011;10060;48.274;12.214;2022-10-16T10:57:39;2.90;;;2.60;;
19800;SDS011;10060;48.274;12.214;2022-10-16T11:00:46;2.70;;;2.03;;
19800;SDS011;10060;48.274;12.214;2022-10-16T11:03:58;2.80;;;2.20;;
19800;SDS011;10060;48.274;12.214;2022-10-16T11:07:04;3.80;;;2.45;;
19800;SDS011;10060;48.274;12.214;2022-10-16T11:10:09;2.72;;;2.15;;
19800;SDS011;10060;48.274;12.214;2022-10-16T11:13:19;3.92;;;2.10;;
19800;SDS011;10060;48.274;12.214;2022-10-16T11:16:23;2.17;;;1.98;;
19800;SDS011;10060;48.274;12.214;2022-10-16T11:19:31;3.25;;;1.85;;
19800;SDS011;10060;48.274;12.214;2022-10-16T11:22:37;8.45;;;2.25;;
19800;SDS011;10060;48.274;12.214;2022-10-16T11:25:41;4.55;;;1.85;;
19800;SDS011;10060;48.274;12.214;2022-10-16T11:28:46;5.22;;;1.77;;
19800;SDS011;10060;48.274;12.214;2022-10-16T11:31:51;3.25;;;1.67;;
19800;SDS011;10060;48.274;12.214;2022-10-16T11:34:55;4.63;;;1.90;;
19800;SDS011;10060;48.274;12.214;2022-10-16T11:37:59;3.83;;;1.92;;
19800;SDS011;10060;48.274;12.214;2022-10-16T11:41:07;2.35;;;1.80;;
19800;SDS011;10060;48.274;12.214;2022-10-16T11:44:18;5.05;;;2.05;;
19800;SDS011;10060;48.274;12.214;2022-10-16T11:47:30;3.03;;;1.73;;
19800;SDS011;10060;48.274;12.214;2022-10-16T11:50:37;2.65;;;1.52;;
19800;SDS011;10060;48.274;12.214;2022-10-16T11:53:42;2.60;;;2.15;;
19800;SDS011;10060;48.274;12.214;2022-10-16T11:56:46;5.13;;;2.28;;
19800;SDS011;10060;48.274;12.214;2022-10-16T11:59:52;2.53;;;1.77;;
19800;SDS011;10060;48.274;12.214;2022-10-16T12:02:58;1.73;;;1.50;;
19800;SDS011;10060;48.274;12.214;2022-10-16T12:06:06;3.03;;;2.00;;
19800;SDS011;10060;48.274;12.214;2022-10-16T12:09:15;2.92;;;1.75;;
19800;SDS011;10060;48.274;12.214;2022-10-16T12:12:26;3.08;;;1.88;;
19800;SDS011;10060;48.274;12.214;2022-10-16T12:15:30;1.75;;;1.42;;
19800;SDS011;10060;48.274;12.214;2022-10-16T12:18:32;3.80;;;1.77;;
19800;SDS011;10060;48.274;12.214;2022-10-16T12:21:35;1.33;;;1.10;;
19800;SDS011;10060;48.274;12.214;2022-10-16T12:24:37;1.60;;;1.38;;
19800;SDS011;10060;48.274;12.214;2022-10-16T12:27:41;1.63;;;1.52;;
19800;SDS011;10060;48.274;12.214;2022-10-16T12:30:51;1.45;;;1.20;;
19800;SDS011;10060;48.274;12.214;2022-10-16T12:33:57;3.70;;;1.50;;
19800;SDS011;10060;48.274;12.214;2022-10-16T12:37:07;3.05;;;1.20;;
19800;SDS011;10060;48.274;12.214;2022-10-16T12:40:13;3.20;;;1.58;;
19800;SDS011;10060;48.274;12.214;2022-10-16T12:43:27;2.22;;;1.85;;
19800;SDS011;10060;48.274;12.214;2022-10-16T12:46:37;2.38;;;2.00;;
19800;SDS011;10060;48.274;12.214;2022-10-16T12:49:47;2.30;;;1.80;;
19800;SDS011;10060;48.274;12.214;2022-10-16T12:52:50;2.08;;;1.67;;
19800;SDS011;10060;48.274;12.214;2022-10-16T12:55:54;2.92;;;1.85;;
19800;SDS011;10060;48.274;12.214;2022-10-16T12:59:04;1.77;;;1.50;;
19800;SDS011;10060;48.274;12.214;2022-10-16T13:02:22;2.00;;;1.70;;
19800;SDS011;10060;48.274;12.214;2022-10-16T13:05:33;3.83;;;1.52;;
19800;SDS011;10060;48.274;12.214;2022-10-16T13:08:40;1.42;;;1.25;;
19800;SDS011;10060;48.274;12.214;2022-10-16T13:11:50;3.13;;;1.60;;
19800;SDS011;10060;48.274;12.214;2022-10-16T13:18:16;5.38;;;1.75;;
19800;SDS011;10060;48.274;12.214;2022-10-16T13:21:21;1.52;;;1.30;;
19800;SDS011;10060;48.274;12.214;2022-10-16T13:24:32;3.13;;;1.25;;
19800;SDS011;10060;48.274;12.214;2022-10-16T13:27:39;2.10;;;1.30;;
19800;SDS011;10060;48.274;12.214;2022-10-16T13:30:43;2.17;;;1.30;;
19800;SDS011;10060;48.274;12.214;2022-10-16T13:33:47;2.67;;;1.65;;
19800;SDS011;10060;48.274;12.214;2022-10-16T13:36:51;3.53;;;1.25;;
19800;SDS011;10060;48.274;12.214;2022-10-16T13:40:01;1.75;;;1.10;;
19800;SDS011;10060;48.274;12.214;2022-10-16T13:43:04;2.25;;;1.50;;
19800;SDS011;10060;48.274;12.214;2022-10-16T13:46:07;1.67;;;1.40;;
19800;SDS011;10060;48.274;12.214;2022-10-16T13:49:15;4.32;;;1.40;;
19800;SDS011;10060;48.274;12.214;2022-10-16T13:52:20;6.15;;;1.10;;
19800;SDS011;10060;48.274;12.214;2022-10-16T13:55:22;2.47;;;1.42;;
19800;SDS011;10060;48.274;12.214;2022-10-16T13:58:24;1.33;;;1.10;;
19800;SDS011;10060;48.274;12.214;2022-10-16T14:01:27;1.65;;;1.40;;
19800;SDS011;10060;48.274;12.214;2022-10-16T14:04:31;3.90;;;1.30;;
19800;SDS011;10060;48.274;12.214;2022-10-16T14:07:34;3.05;;;1.30;;
19800;SDS011;10060;48.274;12.214;2022-10-16T14:10:37;1.65;;;1.23;;
19800;SDS011;10060;48.274;12.214;2022-10-16T14:13:40;3.85;;;2.30;;
19800;SDS011;10060;48.274;12.214;2022-10-16T14:16:45;3.60;;;2.20;;
19800;SDS011;10060;48.274;12.214;2022-10-16T14:19:49;2.47;;;1.80;;
19800;SDS011;10060;48.274;12.214;2022-10-16T14:22:57;2.42;;;1.25;;
19800;SDS011;10060;48.274;12.214;2022-10-16T14:26:11;4.40;;;1.33;;
19800;SDS011;10060;48.274;12.214;2022-10-16T14:29:15;1.55;;;1.27;;
19800;SDS011;10060;48.274;12.214;2022-10-16T14:32:21;5.25;;;1.40;;
19800;SDS011;10060;48.274;12.214;2022-10-16T14:35:27;1.75;;;1.30;;
19800;SDS011;10060;48.274;12.214;2022-10-16T14:38:29;3.90;;;1.60;;
19800;SDS011;10060;48.274;12.214;2022-10-16T14:41:32;3.47;;;1.10;;
19800;SDS011;10060;48.274;12.214;2022-10-16T14:44:42;3.13;;;1.50;;
19800;SDS011;10060;48.274;12.214;2022-10-16T14:47:47;6.75;;;2.53;;
19800;SDS011;10060;48.274;12.214;2022-10-16T14:50:50;5.95;;;2.25;;
19800;SDS011;10060;48.274;12.214;2022-10-16T14:53:53;2.53;;;1.40;;
19800;SDS011;10060;48.274;12.214;2022-10-16T14:56:55;1.67;;;1.58;;
19800;SDS011;10060;48.274;12.214;2022-10-16T14:59:58;2.90;;;1.50;;
19800;SDS011;10060;48.274;12.214;2022-10-16T15:03:00;2.03;;;1.33;;
19800;SDS011;10060;48.274;12.214;2022-10-16T15:06:04;1.55;;;1.40;;
19800;SDS011;10060;48.274;12.214;2022-10-16T15:09:11;3.50;;;1.95;;
19800;SDS011;10060;48.274;12.214;2022-10-16T15:12:13;4.60;;;1.70;;
19800;SDS011;10060;48.274;12.214;2022-10-16T15:15:21;2.33;;;1.30;;
19800;SDS011;10060;48.274;12.214;2022-10-16T15:18:25;3.58;;;1.70;;
19800;SDS011;10060;48.274;12.214;2022-10-16T15:21:29;4.50;;;1.35;;
19800;SDS011;10060;48.274;12.214;2022-10-16T15:24:32;2.65;;;1.45;;
19800;SDS011;10060;48.274;12.214;2022-10-16T15:27:34;8.02;;;1.67;;
19800;SDS011;10060;48.274;12.214;2022-10-16T15:30:40;5.32;;;1.77;;
19800;SDS011;10060;48.274;12.214;2022-10-16T15:33:42;2.95;;;1.30;;
19800;SDS011;10060;48.274;12.214;2022-10-16T15:36:49;4.75;;;1.33;;
19800;SDS011;10060;48.274;12.214;2022-10-16T15:39:51;2.10;;;1.65;;
19800;SDS011;10060;48.274;12.214;2022-10-16T15:42:53;2.05;;;1.65;;
19800;SDS011;10060;48.274;12.214;2022-10-16T15:45:59;4.70;;;1.30;;
19800;SDS011;10060;48.274;12.214;2022-10-16T15:49:02;2.38;;;1.85;;
19800;SDS011;10060;48.274;12.214;2022-10-16T15:52:05;6.00;;;1.80;;
19800;SDS011;10060;48.274;12.214;2022-10-16T15:55:08;3.67;;;1.70;;
19800;SDS011;10060;48.274;12.214;2022-10-16T15:58:10;2.63;;;1.38;;
19800;SDS011;10060;48.274;12.214;2022-10-16T16:01:13;4.18;;;1.90;;
19800;SDS011;10060;48.274;12.214;2022-10-16T16:04:15;3.58;;;1.77;;
19800;SDS011;10060;48.274;12.214;2022-10-16T16:07:19;5.90;;;1.80;;
19800;SDS011;10060;48.274;12.214;2022-10-16T16:10:21;3.97;;;1.60;;
19800;SDS011;10060;48.274;12.214;2022-10-16T16:13:23;2.70;;;1.55;;
19800;SDS011;10060;48.274;12.214;2022-10-16T16:16:25;2.03;;;1.73;;
19800;SDS011;10060;48.274;12.214;2022-10-16T16:19:28;6.57;;;2.17;;
19800;SDS011;10060;48.274;12.214;2022-10-16T16:22:33;3.67;;;2.35;;
19800;SDS011;10060;48.274;12.214;2022-10-16T16:25:35;3.97;;;1.80;;
19800;SDS011;10060;48.274;12.214;2022-10-16T16:28:38;8.70;;;2.60;;
19800;SDS011;10060;48.274;12.214;2022-10-16T16:31:40;3.47;;;2.40;;
19800;SDS011;10060;48.274;12.214;2022-10-16T16:34:42;8.52;;;2.58;;
19800;SDS011;10060;48.274;12.214;2022-10-16T16:37:46;7.97;;;2.70;;
19800;SDS011;10060;48.274;12.214;2022-10-16T16:40:48;5.45;;;2.60;;
19800;SDS011;10060;48.274;12.214;2022-10-16T16:43:52;5.45;;;2.72;;
19800;SDS011;10060;48.274;12.214;2022-10-16T16:46:54;6.30;;;2.72;;
19800;SDS011;10060;48.274;12.214;2022-10-16T16:49:56;4.38;;;2.70;;
19800;SDS011;10060;48.274;12.214;2022-10-16T16:53:00;3.00;;;2.40;;
19800;SDS011;10060;48.274;12.214;2022-10-16T16:56:03;4.50;;;2.75;;
19800;SDS011;10060;48.274;12.214;2022-10-16T16:59:05;3.63;;;2.28;;
19800;SDS011;10060;48.274;12.214;2022-10-16T17:02:08;6.00;;;2.60;;
19800;SDS011;10060;48.274;12.214;2022-10-16T17:05:10;3.25;;;2.42;;
19800;SDS011;10060;48.274;12.214;2022-10-16T17:08:13;3.67;;;2.80;;
19800;SDS011;10060;48.274;12.214;2022-10-16T17:11:17;4.40;;;2.78;;
19800;SDS011;10060;48.274;12.214;2022-10-16T17:14:19;5.72;;;2.60;;
19800;SDS011;10060;48.274;12.214;2022-10-16T17:17:21;6.32;;;2.60;;
19800;SDS011;10060;48.274;12.214;2022-10-16T17:20:23;5.90;;;2.70;;
19800;SDS011;10060;48.274;12.214;2022-10-16T17:23:27;3.10;;;2.15;;
19800;SDS011;10060;48.274;12.214;2022-10-16T17:26:29;3.33;;;2.35;;
19800;SDS011;10060;48.274;12.214;2022-10-16T17:29:31;3.35;;;2.22;;
19800;SDS011;10060;48.274;12.214;2022-10-16T17:32:34;7.38;;;2.40;;
19800;SDS011;10060;48.274;12.214;2022-10-16T17:35:36;6.97;;;2.13;;
19800;SDS011;10060;48.274;12.214;2022-10-16T17:38:40;4.60;;;2.55;;
19800;SDS011;10060;48.274;12.214;2022-10-16T17:41:42;7.15;;;2.42;;
19800;SDS011;10060;48.274;12.214;2022-10-16T17:44:45;4.20;;;2.00;;
19800;SDS011;10060;48.274;12.214;2022-10-16T17:47:47;2.95;;;2.65;;
19800;SDS011;10060;48.274;12.214;2022-10-16T17:50:49;6.13;;;2.10;;
19800;SDS011;10060;48.274;12.214;2022-10-16T17:53:53;2.67;;;2.00;;
19800;SDS011;10060;48.274;12.214;2022-10-16T17:56:56;2.50;;;2.20;;
19800;SDS011;10060;48.274;12.214;2022-10-16T17:59:58;6.97;;;1.90;;
19800;SDS011;10060;48.274;12.214;2022-10-16T18:03:01;6.03;;;2.28;;
19800;SDS011;10060;48.274;12.214;2022-10-16T18:06:03;2.97;;;2.35;;
19800;SDS011;10060;48.274;12.214;2022-10-16T18:09:07;9.50;;;2.70;;
19800;SDS011;10060;48.274;12.214;2022-10-16T18:12:10;2.50;;;2.17;;
19800;SDS011;10060;48.274;12.214;2022-10-16T18:15:12;2.85;;;2.10;;
19800;SDS011;10060;48.274;12.214;2022-10-16T18:18:15;5.18;;;1.83;;
19800;SDS011;10060;48.274;12.214;2022-10-16T18:21:17;5.18;;;2.95;;